Time;durP1;ratioP1;P1;durP2;ratioP2;P2;SDS_P1;SDS_P2;PMS_P1;PMS_P2;Temp;Humidity;BMP_temperature;BMP_pressure;BME280_temperature;BME280_humidity;BME280_pressure;Samples;Min_cycle;Max_cycle;Signal;HPM_P1;HPM_P2
2023/09/18 00:01:01;;;;;;;3.4;2.8;;;;;;;;;;;;;
2023/09/18 00:03:26;;;;;;;3.4;2.5;;;;;;;;;;;;;
2023/09/18 00:05:52;;;;;;;4.6;2.8;;;;;;;;;;;;;
2023/09/18 00:08:17;;;;;;;3.4;2.6;;;;;;;;;;;;;
2023/09/18 00:10:42;;;;;;;6;2.7;;;;;;;;;;;;;
2023/09/18 00:13:07;;;;;;;7;2.9;;;;;;;;;;;;;
2023/09/18 00:15:32;;;;;;;4.3;2.9;;;;;;;;;;;;;
2023/09/18 00:17:57;;;;;;;4.3;2.6;;;;;;;;;;;;;
2023/09/18 00:20:26;;;;;;;3.2;2.3;;;;;;;;;;;;;
2023/09/18 00:22:48;;;;;;;4;2.5;;;;;;;;;;;;;
2023/09/18 00:25:15;;;;;;;3.9;2.6;;;;;;;;;;;;;
2023/09/18 00:27:40;;;;;;;4.4;2.5;;;;;;;;;;;;;
2023/09/18 00:30:06;;;;;;;5.3;2.4;;;;;;;;;;;;;
2023/09/18 00:32:30;;;;;;;4.2;2.7;;;;;;;;;;;;;
2023/09/18 00:34:55;;;;;;;3.1;2.6;;;;;;;;;;;;;
2023/09/18 00:37:21;;;;;;;3.3;2.3;;;;;;;;;;;;;
2023/09/18 00:39:46;;;;;;;4;2.5;;;;;;;;;;;;;
2023/09/18 00:42:13;;;;;;;5;2.4;;;;;;;;;;;;;
2023/09/18 00:44:36;;;;;;;5;2.4;;;;;;;;;;;;;
2023/09/18 00:47:01;;;;;;;5.1;2.3;;;;;;;;;;;;;
2023/09/18 00:49:26;;;;;;;5.9;2.8;;;;;;;;;;;;;
2023/09/18 00:51:51;;;;;;;2.9;2.5;;;;;;;;;;;;;
2023/09/18 00:54:18;;;;;;;4.4;2.4;;;;;;;;;;;;;
2023/09/18 00:56:41;;;;;;;4.3;2.5;;;;;;;;;;;;;
2023/09/18 00:59:06;;;;;;;3.7;2.2;;;;;;;;;;;;;
2023/09/18 01:01:32;;;;;;;4.3;2.6;;;;;;;;;;;;;
2023/09/18 01:03:57;;;;;;;5.9;2.6;;;;;;;;;;;;;
2023/09/18 01:06:22;;;;;;;5.3;2.4;;;;;;;;;;;;;
2023/09/18 01:08:50;;;;;;;3.5;2.2;;;;;;;;;;;;;
2023/09/18 01:11:14;;;;;;;5.3;2.5;;;;;;;;;;;;;
2023/09/18 01:13:38;;;;;;;3.8;2.5;;;;;;;;;;;;;
2023/09/18 01:16:04;;;;;;;5.6;2.5;;;;;;;;;;;;;
2023/09/18 01:18:28;;;;;;;6.1;2.8;;;;;;;;;;;;;
2023/09/18 01:20:53;;;;;;;5.7;2.6;;;;;;;;;;;;;
2023/09/18 01:23:18;;;;;;;4.3;2.3;;;;;;;;;;;;;
2023/09/18 01:25:43;;;;;;;3.3;2.2;;;;;;;;;;;;;
2023/09/18 01:28:09;;;;;;;6.9;2.8;;;;;;;;;;;;;
2023/09/18 01:30:34;;;;;;;4.5;2.4;;;;;;;;;;;;;
2023/09/18 01:32:59;;;;;;;5.1;2.4;;;;;;;;;;;;;
2023/09/18 01:35:29;;;;;;;3.1;2.6;;;;;;;;;;;;;
2023/09/18 01:37:49;;;;;;;4.6;2.5;;;;;;;;;;;;;
2023/09/18 01:40:14;;;;;;;5.7;2.8;;;;;;;;;;;;;
2023/09/18 01:42:39;;;;;;;4.3;2.6;;;;;;;;;;;;;
2023/09/18 01:45:05;;;;;;;3.7;2.4;;;;;;;;;;;;;
2023/09/18 01:47:30;;;;;;;5.8;2.7;;;;;;;;;;;;;
2023/09/18 01:49:55;;;;;;;5.1;2.8;;;;;;;;;;;;;
2023/09/18 01:52:20;;;;;;;4;2.5;;;;;;;;;;;;;
2023/09/18 01:54:45;;;;;;;4.5;2.5;;;;;;;;;;;;;
2023/09/18 01:57:12;;;;;;;6.3;2.4;;;;;;;;;;;;;
2023/09/18 01:59:36;;;;;;;8.2;2.9;;;;;;;;;;;;;
2023/09/18 02:02:03;;;;;;;5.8;2.2;;;;;;;;;;;;;
2023/09/18 02:04:27;;;;;;;5.4;2.6;;;;;;;;;;;;;
2023/09/18 02:06:53;;;;;;;4.9;2.6;;;;;;;;;;;;;
2023/09/18 02:09:17;;;;;;;8.4;3.1;;;;;;;;;;;;;
2023/09/18 02:11:42;;;;;;;7.8;2.9;;;;;;;;;;;;;
2023/09/18 02:14:09;;;;;;;5.7;2.8;;;;;;;;;;;;;
2023/09/18 02:16:33;;;;;;;4.6;2.6;;;;;;;;;;;;;
2023/09/18 02:18:58;;;;;;;5.3;2.7;;;;;;;;;;;;;
2023/09/18 02:21:25;;;;;;;8.1;2.9;;;;;;;;;;;;;
2023/09/18 02:23:49;;;;;;;7.8;2.7;;;;;;;;;;;;;
2023/09/18 02:26:14;;;;;;;3.7;2.6;;;;;;;;;;;;;
2023/09/18 02:28:39;;;;;;;6.1;3.2;;;;;;;;;;;;;
2023/09/18 02:31:05;;;;;;;4.8;2.4;;;;;;;;;;;;;
2023/09/18 02:33:30;;;;;;;7.1;2.7;;;;;;;;;;;;;
2023/09/18 02:35:55;;;;;;;5;2.9;;;;;;;;;;;;;
2023/09/18 02:38:21;;;;;;;5.3;2.9;;;;;;;;;;;;;
2023/09/18 02:40:46;;;;;;;6.4;2.6;;;;;;;;;;;;;
2023/09/18 02:43:11;;;;;;;7;2.9;;;;;;;;;;;;;
2023/09/18 02:45:36;;;;;;;7.6;2.7;;;;;;;;;;;;;
2023/09/18 02:48:01;;;;;;;11.2;3.1;;;;;;;;;;;;;
2023/09/18 02:50:26;;;;;;;5.7;2.9;;;;;;;;;;;;;
2023/09/18 02:52:51;;;;;;;5.3;2.6;;;;;;;;;;;;;
2023/09/18 02:55:17;;;;;;;7.9;2.9;;;;;;;;;;;;;
2023/09/18 02:57:41;;;;;;;4.6;2.8;;;;;;;;;;;;;
2023/09/18 03:00:06;;;;;;;10.2;3.4;;;;;;;;;;;;;
2023/09/18 03:02:33;;;;;;;4.2;2.6;;;;;;;;;;;;;
2023/09/18 03:04:59;;;;;;;6;3.4;;;;;;;;;;;;;
2023/09/18 03:07:29;;;;;;;9.6;2.7;;;;;;;;;;;;;
2023/09/18 03:09:53;;;;;;;7.4;3.1;;;;;;;;;;;;;
2023/09/18 03:12:19;;;;;;;7.5;3;;;;;;;;;;;;;
2023/09/18 03:14:44;;;;;;;7.5;3.3;;;;;;;;;;;;;
2023/09/18 03:17:10;;;;;;;5;2.7;;;;;;;;;;;;;
2023/09/18 03:19:35;;;;;;;7;3.2;;;;;;;;;;;;;
2023/09/18 03:22:01;;;;;;;5.1;3;;;;;;;;;;;;;
2023/09/18 03:24:28;;;;;;;7.6;2.9;;;;;;;;;;;;;
2023/09/18 03:26:53;;;;;;;6.4;3.1;;;;;;;;;;;;;
2023/09/18 03:29:19;;;;;;;10.9;3.6;;;;;;;;;;;;;
2023/09/18 03:31:44;;;;;;;6.1;3;;;;;;;;;;;;;
2023/09/18 03:34:11;;;;;;;7;3.5;;;;;;;;;;;;;
2023/09/18 03:36:37;;;;;;;7.8;3.1;;;;;;;;;;;;;
2023/09/18 03:39:04;;;;;;;8;3.6;;;;;;;;;;;;;
2023/09/18 03:41:33;;;;;;;6.6;3.7;;;;;;;;;;;;;
2023/09/18 03:43:54;;;;;;;8.3;3.6;;;;;;;;;;;;;
2023/09/18 03:46:19;;;;;;;11.2;3.6;;;;;;;;;;;;;
2023/09/18 03:48:46;;;;;;;10.7;3.5;;;;;;;;;;;;;
2023/09/18 03:51:15;;;;;;;8.9;3.4;;;;;;;;;;;;;
2023/09/18 03:53:36;;;;;;;9.2;3.4;;;;;;;;;;;;;
2023/09/18 03:56:04;;;;;;;8.3;3.5;;;;;;;;;;;;;
2023/09/18 03:58:28;;;;;;;6.9;3.6;;;;;;;;;;;;;
2023/09/18 04:02:36;;;;;;;8;3.6;;;;;;;16.61;87.20605;933.2333;;;;
2023/09/18 04:05:02;;;;;;;12;3.9;;;;;;;16.69;86.28418;933.2587;;;;
2023/09/18 04:07:39;;;;;;;12.4;5.2;;;;;;;16.52;87.07227;933.3206;;;;
2023/09/18 04:10:05;;;;;;;7.4;4.7;;;;;;;16.51;87.31152;933.2163;;;;
2023/09/18 04:12:38;;;;;;;10.8;4.4;;;;;;;16.53;87.58301;933.2367;;;;
2023/09/18 04:15:19;;;;;;;8.1;3.8;;;;;;;16.58;87.32715;933.2098;;;;
2023/09/18 04:17:44;;;;;;;11.5;3.5;;;;;;;16.52;87.06055;933.1492;;;;
2023/09/18 04:20:12;;;;;;;9.1;3.7;;;;;;;16.51;87.21094;933.1174;;;;
2023/09/18 04:22:41;;;;;;;11.4;3.8;;;;;;;16.51;87.40723;933.1077;;;;
2023/09/18 04:25:07;;;;;;;8.8;3.4;;;;;;;16.49;87.61035;933.0382;;;;
2023/09/18 04:27:30;;;;;;;9.2;3.5;;;;;;;16.36;87.81641;933.048;;;;
2023/09/18 04:30:00;;;;;;;9.3;3.4;;;;;;;16.4;87.89355;933.0246;;;;
2023/09/18 04:32:25;;;;;;;6.8;3.3;;;;;;;16.3;87.90625;932.9103;;;;
2023/09/18 04:34:57;;;;;;;14;4.7;;;;;;;16.32;87.88672;932.9196;;;;
2023/09/18 04:37:25;;;;;;;9.6;3.3;;;;;;;16.38;87.42676;932.9036;;;;
2023/09/18 04:39:50;;;;;;;6.7;3.4;;;;;;;16.33;87.77441;932.9547;;;;
2023/09/18 04:42:18;;;;;;;8.9;3.6;;;;;;;16.41;87.57129;932.9313;;;;
2023/09/18 04:44:43;;;;;;;9.1;3;;;;;;;16.43;87.40137;932.948;;;;
2023/09/18 04:47:11;;;;;;;8.6;3.2;;;;;;;16.45;87.51855;932.8954;;;;
2023/09/18 04:49:36;;;;;;;12.4;3.5;;;;;;;16.57;86.95313;932.8839;;;;
2023/09/18 04:52:05;;;;;;;12.4;4;;;;;;;16.58;86.83984;932.8555;;;;
2023/09/18 04:54:29;;;;;;;8.3;3.6;;;;;;;16.64;86.64355;932.8423;;;;
2023/09/18 04:57:01;;;;;;;8;3.7;;;;;;;16.66;86.68164;932.8636;;;;
2023/09/18 04:59:23;;;;;;;13.3;4.3;;;;;;;16.7;86.38965;932.8975;;;;
2023/09/18 05:01:51;;;;;;;12.2;3.7;;;;;;;16.6;87.05371;932.8879;;;;
2023/09/18 05:04:16;;;;;;;10.3;3.6;;;;;;;16.57;87.53223;932.8388;;;;
2023/09/18 05:06:46;;;;;;;10.9;3.9;;;;;;;16.57;87.34668;932.805;;;;
2023/09/18 05:09:12;;;;;;;11.2;3.7;;;;;;;16.66;87.13574;932.6964;;;;
2023/09/18 05:11:38;;;;;;;11.7;4.1;;;;;;;16.62;87.16113;932.813;;;;
2023/09/18 05:14:09;;;;;;;10.4;3.6;;;;;;;16.63;87.0127;932.8603;;;;
2023/09/18 05:16:38;;;;;;;10.2;4.6;;;;;;;16.62;87.04492;932.7969;;;;
2023/09/18 05:19:03;;;;;;;13.4;4.7;;;;;;;16.64;87.72266;932.8326;;;;
2023/09/18 05:21:33;;;;;;;19.8;5.6;;;;;;;16.61;86.97363;932.7631;;;;
2023/09/18 05:24:04;;;;;;;14.1;5.9;;;;;;;16.63;87.58008;932.7781;;;;
2023/09/18 05:26:30;;;;;;;16.8;5.7;;;;;;;16.74;86.71094;932.8661;;;;
2023/09/18 05:28:58;;;;;;;13.5;5;;;;;;;16.78;86.90234;932.9094;;;;
2023/09/18 05:31:24;;;;;;;11.4;4.8;;;;;;;16.99;86.66699;932.9023;;;;
2023/09/18 05:33:51;;;;;;;10.4;3.9;;;;;;;17.25;85.39453;932.9619;;;;
2023/09/18 05:36:16;;;;;;;10.4;4.6;;;;;;;17.41;85.16113;932.8806;;;;
2023/09/18 05:38:43;;;;;;;15.1;5.8;;;;;;;17.21;84.9707;932.8385;;;;
2023/09/18 05:41:08;;;;;;;12.7;5.5;;;;;;;17.31;85.20996;932.8558;;;;
2023/09/18 05:43:35;;;;;;;13.4;5.3;;;;;;;17.48;85.00195;932.7848;;;;
2023/09/18 05:45:59;;;;;;;15.4;5.1;;;;;;;17.66;85.13965;932.6653;;;;
2023/09/18 05:48:31;;;;;;;15.4;4.3;;;;;;;18.01;81.17676;932.7134;;;;
2023/09/18 05:50:56;;;;;;;14.8;4.2;;;;;;;18.37;79.24414;932.6747;;;;
2023/09/18 05:53:21;;;;;;;9.5;3.5;;;;;;;18.67;78.41406;932.7342;;;;
2023/09/18 05:55:50;;;;;;;10.8;4.2;;;;;;;18.64;79.33789;932.7473;;;;
2023/09/18 05:58:17;;;;;;;10.7;4.2;;;;;;;18.41;80.69238;932.6524;;;;
2023/09/18 06:00:44;;;;;;;15.5;4.4;;;;;;;18.19;80.5;932.6757;;;;
2023/09/18 06:03:12;;;;;;;13.4;3.9;;;;;;;18.24;80.84863;932.647;;;;
2023/09/18 06:05:40;;;;;;;13.5;4.3;;;;;;;18.3;81.42773;932.6583;;;;
2023/09/18 06:08:05;;;;;;;12.2;4.6;;;;;;;18.33;80.75879;932.6856;;;;
2023/09/18 06:10:30;;;;;;;12.9;4;;;;;;;18.4;80.77246;932.7625;;;;
2023/09/18 06:12:58;;;;;;;12.4;4;;;;;;;18.43;80.7998;932.8152;;;;
2023/09/18 06:15:22;;;;;;;14.4;4.2;;;;;;;18.54;79.95996;932.8844;;;;
2023/09/18 06:17:51;;;;;;;10.1;3.9;;;;;;;18.74;79.82324;932.9863;;;;
2023/09/18 06:20:17;;;;;;;12;4.1;;;;;;;19.05;78.3418;932.9239;;;;
2023/09/18 06:22:44;;;;;;;12.9;4;;;;;;;19.63;78.47949;932.8938;;;;
2023/09/18 06:25:09;;;;;;;9.1;3.9;;;;;;;19.94;76.2373;932.9141;;;;
2023/09/18 06:27:37;;;;;;;11.6;3.6;;;;;;;20.24;75.34277;932.952;;;;
2023/09/18 06:30:02;;;;;;;15.3;4.2;;;;;;;20.39;74.87891;932.9551;;;;
2023/09/18 06:32:28;;;;;;;15.8;4.2;;;;;;;20.52;73.25293;932.9811;;;;
2023/09/18 06:34:53;;;;;;;16.9;4.7;;;;;;;20.55;73.67773;932.9459;;;;
2023/09/18 06:37:18;;;;;;;14.5;4.5;;;;;;;20.65;74.11719;932.9462;;;;
2023/09/18 06:39:50;;;;;;;12.4;4.2;;;;;;;20.67;74.02637;932.9213;;;;
2023/09/18 06:42:20;;;;;;;14.4;4.1;;;;;;;20.85;74.75684;932.8693;;;;
2023/09/18 06:44:49;;;;;;;19.6;4.4;;;;;;;21.15;73.96484;932.8978;;;;
2023/09/18 06:47:15;;;;;;;12.2;4.6;;;;;;;20.88;73.32422;932.8318;;;;
2023/09/18 06:49:42;;;;;;;12.8;4;;;;;;;20.66;75.44922;932.8353;;;;
2023/09/18 06:52:07;;;;;;;16.8;4.2;;;;;;;20.84;73.0498;932.8512;;;;
2023/09/18 06:54:34;;;;;;;15.2;3.6;;;;;;;21.23;65.49707;932.7966;;;;
2023/09/18 06:57:03;;;;;;;15;4.1;;;;;;;21.7;66;932.7966;;;;
2023/09/18 06:59:29;;;;;;;12.7;4;;;;;;;22.21;63.33105;932.7894;;;;
2023/09/18 07:01:55;;;;;;;14.6;3.8;;;;;;;22.61;64.13867;932.7736;;;;
2023/09/18 07:04:20;;;;;;;16.6;4.1;;;;;;;22.86;63.03613;932.7405;;;;
2023/09/18 07:06:46;;;;;;;13.1;3.3;;;;;;;23.04;62.68555;932.6646;;;;
2023/09/18 07:09:14;;;;;;;11.7;3.2;;;;;;;23.68;61.3877;932.7339;;;;
2023/09/18 07:11:44;;;;;;;11.6;3.9;;;;;;;24.12;60.45898;932.7242;;;;
2023/09/18 07:14:08;;;;;;;12.2;3.4;;;;;;;24.43;59.99512;932.6842;;;;
2023/09/18 07:16:37;;;;;;;21.5;4.3;;;;;;;24.87;58.27246;932.6724;;;;
2023/09/18 07:19:11;;;;;;;17;3.3;;;;;;;24.9;55.25684;932.6501;;;;
2023/09/18 07:21:32;;;;;;;10.5;3.6;;;;;;;25.12;55.44922;932.6113;;;;
2023/09/18 07:23:57;;;;;;;10.6;3.1;;;;;;;25.36;56.6123;932.6887;;;;
2023/09/18 07:26:22;;;;;;;14.8;3.2;;;;;;;26.36;53.67285;932.7228;;;;
2023/09/18 07:28:49;;;;;;;12.7;3.5;;;;;;;26.57;54.51563;932.7459;;;;
2023/09/18 07:31:14;;;;;;;8.4;2.9;;;;;;;26.02;54.51953;932.6676;;;;
2023/09/18 07:33:40;;;;;;;15.1;3.6;;;;;;;25.88;54.24219;932.58;;;;
2023/09/18 07:36:05;;;;;;;13.6;3.9;;;;;;;25.65;54.30957;932.6735;;;;
2023/09/18 07:38:30;;;;;;;15.2;3.5;;;;;;;25.72;54.24707;932.6777;;;;
2023/09/18 07:40:56;;;;;;;11.9;3;;;;;;;25.94;52.83203;932.6316;;;;
2023/09/18 07:43:24;;;;;;;17.3;4.2;;;;;;;25.81;52.81543;932.6319;;;;
2023/09/18 07:45:49;;;;;;;13.1;3.4;;;;;;;25.92;52.89941;932.7023;;;;
2023/09/18 07:48:17;;;;;;;12.7;3.6;;;;;;;25.93;56.88574;932.8094;;;;
2023/09/18 07:50:40;;;;;;;15.1;3.7;;;;;;;25.52;59.39648;932.8757;;;;
2023/09/18 07:53:07;;;;;;;13.4;3.3;;;;;;;25.09;58.10059;932.9601;;;;
2023/09/18 07:55:32;;;;;;;15.2;3.8;;;;;;;24.94;57.72754;932.9594;;;;
2023/09/18 07:57:58;;;;;;;16.1;3.7;;;;;;;24.85;59.13086;933.0094;;;;
2023/09/18 08:00:23;;;;;;;15.1;4.2;;;;;;;24.88;59.02832;932.9881;;;;
2023/09/18 08:02:49;;;;;;;19.3;4;;;;;;;25.1;61.12305;933.0298;;;;
2023/09/18 08:05:13;;;;;;;11.5;3.3;;;;;;;25.18;63.22363;933.0453;;;;
2023/09/18 08:07:42;;;;;;;18.9;4.2;;;;;;;24.87;64.3125;933.062;;;;
2023/09/18 08:10:08;;;;;;;16.6;3.4;;;;;;;24.83;64.20996;933.06;;;;
2023/09/18 08:12:39;;;;;;;13.9;4;;;;;;;24.8;65.74121;933.106;;;;
2023/09/18 08:15:06;;;;;;;15.1;4.3;;;;;;;24.74;66.95996;933.1721;;;;
2023/09/18 08:17:29;;;;;;;10.3;3.5;;;;;;;24.78;63.16602;933.2467;;;;
2023/09/18 08:19:58;;;;;;;17.3;3.8;;;;;;;24.77;64.5459;933.3098;;;;
2023/09/18 08:22:23;;;;;;;14.5;3.4;;;;;;;24.74;65.04883;933.2698;;;;
2023/09/18 08:24:48;;;;;;;18.7;4.3;;;;;;;24.74;64.45801;933.3131;;;;
2023/09/18 08:27:13;;;;;;;10.6;3.6;;;;;;;24.75;64.56543;933.3354;;;;
2023/09/18 08:29:40;;;;;;;11.1;4;;;;;;;24.56;67.06055;933.3851;;;;
2023/09/18 08:32:05;;;;;;;14.4;3.9;;;;;;;24.25;67.26172;933.3761;;;;
2023/09/18 08:34:31;;;;;;;12.2;3.9;;;;;;;24.09;66.47266;933.4955;;;;
2023/09/18 08:36:56;;;;;;;20.3;4.9;;;;;;;24.07;65.53906;933.6052;;;;
2023/09/18 08:39:23;;;;;;;17.1;3.7;;;;;;;24.05;64.73633;933.6316;;;;
2023/09/18 08:41:48;;;;;;;13.6;3.6;;;;;;;23.99;64.77344;933.634;;;;
2023/09/18 08:44:14;;;;;;;13.7;3.7;;;;;;;23.85;64.83691;933.66;;;;
2023/09/18 08:46:39;;;;;;;13.3;3.4;;;;;;;23.75;65.64551;933.774;;;;
2023/09/18 08:49:04;;;;;;;14.4;4;;;;;;;23.58;64.63281;933.8024;;;;
2023/09/18 08:51:31;;;;;;;16.7;4.4;;;;;;;23.42;64.83203;933.8475;;;;
2023/09/18 08:53:56;;;;;;;15.8;4.1;;;;;;;23.38;65.56738;933.8923;;;;
2023/09/18 08:56:22;;;;;;;17.3;4.2;;;;;;;23.29;64.81348;933.8414;;;;
2023/09/18 08:58:47;;;;;;;12.3;3.3;;;;;;;23.31;65.01758;933.7999;;;;
2023/09/18 09:01:14;;;;;;;13.5;3.7;;;;;;;23.27;64.96289;933.9025;;;;
2023/09/18 09:03:39;;;;;;;17.4;3.7;;;;;;;23.44;63.50586;933.8431;;;;
2023/09/18 09:06:06;;;;;;;10.8;3.6;;;;;;;23.36;63.85938;933.8133;;;;
2023/09/18 09:08:31;;;;;;;16.3;4.1;;;;;;;23.26;64.11523;933.8245;;;;
2023/09/18 09:11:03;;;;;;;14.9;3.4;;;;;;;23.36;64.69336;933.8247;;;;
2023/09/18 09:13:32;;;;;;;16.2;3.3;;;;;;;23.42;64.2207;933.8178;;;;
2023/09/18 09:16:03;;;;;;;11.9;3.1;;;;;;;23.65;63.11328;933.7831;;;;
2023/09/18 09:18:27;;;;;;;11;2.7;;;;;;;23.7;62.9668;933.7514;;;;
2023/09/18 09:20:57;;;;;;;12.8;3.2;;;;;;;23.67;62.78711;933.7115;;;;
2023/09/18 09:23:21;;;;;;;10.9;3.4;;;;;;;23.74;61.62012;933.7111;;;;
2023/09/18 09:25:46;;;;;;;12.3;3.4;;;;;;;23.51;64.05762;933.8137;;;;
2023/09/18 09:28:12;;;;;;;13.3;3;;;;;;;23.57;60.85547;933.9403;;;;
2023/09/18 09:30:37;;;;;;;12.2;3.6;;;;;;;23.55;62.22754;934.015;;;;
2023/09/18 09:33:04;;;;;;;13.1;3.3;;;;;;;23.41;62.73828;934.0765;;;;
2023/09/18 09:35:28;;;;;;;13.3;3.1;;;;;;;23.39;62.95898;934.0147;;;;
2023/09/18 09:37:55;;;;;;;8.6;2.6;;;;;;;23.52;62.26074;934.0137;;;;
2023/09/18 09:40:20;;;;;;;9.9;2.9;;;;;;;23.52;62.48242;934.0684;;;;
2023/09/18 09:42:46;;;;;;;11.6;3.7;;;;;;;23.58;61.82031;934.1514;;;;
2023/09/18 09:45:11;;;;;;;9.9;3;;;;;;;23.57;62.14844;934.1323;;;;
2023/09/18 09:47:37;;;;;;;9.3;2.8;;;;;;;23.5;63.10352;934.1638;;;;
2023/09/18 09:50:03;;;;;;;10.1;2.9;;;;;;;23.23;63.85254;934.1149;;;;
2023/09/18 09:52:28;;;;;;;11.6;2.6;;;;;;;23.39;63.38184;934.0684;;;;
2023/09/18 09:54:53;;;;;;;13.8;2.9;;;;;;;23.36;64.20117;934.077;;;;
2023/09/18 09:57:18;;;;;;;13.1;3.1;;;;;;;23.38;64.49609;934.0934;;;;
2023/09/18 09:59:45;;;;;;;12.9;3.2;;;;;;;23.36;64.59961;934.0577;;;;
2023/09/18 10:02:12;;;;;;;8.9;3.1;;;;;;;23.37;64.79004;934.0895;;;;
2023/09/18 10:04:35;;;;;;;8.4;3;;;;;;;23.29;63.69727;934.022;;;;
2023/09/18 10:07:00;;;;;;;8.8;3;;;;;;;23.28;63.44824;934.0039;;;;
2023/09/18 10:09:25;;;;;;;8.7;2.8;;;;;;;23.51;63.56348;933.99;;;;
2023/09/18 10:11:51;;;;;;;7.7;3;;;;;;;23.75;63.46875;934.0589;;;;
2023/09/18 10:14:17;;;;;;;9.2;3;;;;;;;23.9;64.14844;933.991;;;;
2023/09/18 10:16:44;;;;;;;10.6;2.6;;;;;;;24.34;62.32715;934.0081;;;;
2023/09/18 10:19:13;;;;;;;13.5;3.4;;;;;;;24.58;61.22949;934.0416;;;;
2023/09/18 10:21:37;;;;;;;13.9;3;;;;;;;25.05;60.88086;934.0632;;;;
2023/09/18 10:24:02;;;;;;;16.4;3.9;;;;;;;25.16;60.26855;934.1208;;;;
2023/09/18 10:26:28;;;;;;;12.2;4;;;;;;;25.26;60.9082;934.137;;;;
2023/09/18 10:31:34;;;;;;;12.8;3;;;;;;;25.94;61.01465;934.1518;;;;
2023/09/18 10:33:59;;;;;;;10.8;3.2;;;;;;;25.95;58.5791;934.1375;;;;
2023/09/18 10:36:24;;;;;;;11.8;3.3;;;;;;;25.9;58.66699;934.1212;;;;
2023/09/18 10:38:51;;;;;;;13.2;3.1;;;;;;;25.62;58.77148;934.146;;;;
2023/09/18 10:41:18;;;;;;;12.4;3.6;;;;;;;25.66;57.83301;934.117;;;;
2023/09/18 10:43:43;;;;;;;13;2.9;;;;;;;25.17;61.09766;934.1848;;;;
2023/09/18 10:46:09;;;;;;;9.6;2.7;;;;;;;24.3;61.47266;934.2195;;;;
2023/09/18 10:48:34;;;;;;;11.8;2.8;;;;;;;23.82;62.77148;934.2929;;;;
2023/09/18 10:51:05;;;;;;;11.3;2.8;;;;;;;23.42;65.62012;934.1475;;;;
2023/09/18 10:53:26;;;;;;;14;3.2;;;;;;;23.01;66.07715;934.0619;;;;
2023/09/18 10:55:54;;;;;;;12.8;3;;;;;;;22.9;67.48047;934.0198;;;;
2023/09/18 10:58:18;;;;;;;9.4;2.8;;;;;;;22.84;70.04297;934.0963;;;;
2023/09/18 11:00:45;;;;;;;12.6;3.1;;;;;;;23.09;69.99023;934.0828;;;;
2023/09/18 11:03:10;;;;;;;8.5;2.3;;;;;;;23;69.09473;934.1589;;;;
2023/09/18 11:05:37;;;;;;;10.2;2.4;;;;;;;23.03;65.05859;934.1715;;;;
2023/09/18 11:08:02;;;;;;;7.8;2.2;;;;;;;22.95;66.57227;934.131;;;;
2023/09/18 11:10:29;;;;;;;7.7;2.4;;;;;;;22.6;66.84863;934.2065;;;;
2023/09/18 11:12:54;;;;;;;7.1;2.3;;;;;;;22.54;66.8877;934.2115;;;;
2023/09/18 11:15:18;;;;;;;7.7;2.1;;;;;;;22.34;67.24316;934.3118;;;;
2023/09/18 11:17:43;;;;;;;5.5;2.1;;;;;;;22.34;67.25488;934.332;;;;
2023/09/18 11:20:11;;;;;;;5.8;1.8;;;;;;;22.16;66.41992;934.2944;;;;
2023/09/18 11:22:33;;;;;;;7.4;1.6;;;;;;;22.1;68.15723;934.4147;;;;
2023/09/18 11:24:58;;;;;;;8;2.1;;;;;;;22.14;65.88867;934.3141;;;;
2023/09/18 11:27:28;;;;;;;6.4;1.5;;;;;;;22.14;67.18945;934.486;;;;
2023/09/18 11:29:52;;;;;;;6.1;1.7;;;;;;;22.15;66.18262;934.5617;;;;
2023/09/18 11:32:17;;;;;;;7;1.7;;;;;;;22.03;68.7793;934.5591;;;;
2023/09/18 11:34:43;;;;;;;8.7;1.8;;;;;;;21.99;69.30078;934.7834;;;;
2023/09/18 11:37:08;;;;;;;5.8;1.7;;;;;;;21.83;71.72559;934.95;;;;
2023/09/18 11:39:34;;;;;;;8.8;2.3;;;;;;;21.6;75.3877;935.0087;;;;
2023/09/18 11:41:59;;;;;;;5.7;2.1;;;;;;;20.84;77.91113;935.2396;;;;
2023/09/18 11:44:25;;;;;;;8.9;2.9;;;;;;;20.53;82.98535;935.4559;;;;
2023/09/18 11:46:52;;;;;;;10.2;2.8;;;;;;;20.4;84.88867;935.5687;;;;
2023/09/18 11:49:16;;;;;;;8.5;2.8;;;;;;;19.94;87.53027;935.6264;;;;
2023/09/18 11:51:42;;;;;;;6.7;2.6;;;;;;;19.49;90.55078;935.9154;;;;
2023/09/18 11:54:07;;;;;;;8.3;2.1;;;;;;;19.39;92.2334;936.0325;;;;
2023/09/18 11:56:34;;;;;;;7;2.2;;;;;;;19.48;90.73535;936.1797;;;;
2023/09/18 11:59:04;;;;;;;3;1.3;;;;;;;19.27;90.51953;936.1188;;;;
2023/09/18 12:01:26;;;;;;;4.8;1.5;;;;;;;19.25;93.07617;936.0848;;;;
2023/09/18 12:03:50;;;;;;;2.9;1;;;;;;;19.18;91.43262;936.2188;;;;
2023/09/18 12:06:15;;;;;;;2.2;0.9;;;;;;;19.31;90.63184;936.2858;;;;
2023/09/18 12:08:40;;;;;;;1.3;0.7;;;;;;;19.24;91.55078;936.2553;;;;
2023/09/18 12:11:06;;;;;;;4.9;1;;;;;;;19.33;92.04492;936.2231;;;;
2023/09/18 12:13:31;;;;;;;4.8;2.6;;;;;;;19.34;92.04688;936.2729;;;;
2023/09/18 12:15:57;;;;;;;4.4;1.5;;;;;;;19.32;94.93262;936.3639;;;;
2023/09/18 12:18:22;;;;;;;3;1.5;;;;;;;19.19;93.30762;936.3947;;;;
2023/09/18 12:20:48;;;;;;;4.7;1.8;;;;;;;19.21;93.5459;936.4417;;;;
2023/09/18 12:23:13;;;;;;;2.1;1.5;;;;;;;19.22;94.44531;936.4116;;;;
2023/09/18 12:25:39;;;;;;;3.1;1;;;;;;;19.23;93.85254;936.334;;;;
2023/09/18 12:28:06;;;;;;;4;0.5;;;;;;;19.39;93.02734;936.365;;;;
2023/09/18 12:30:33;;;;;;;2;0.9;;;;;;;19.47;93.10059;936.3851;;;;
2023/09/18 12:32:59;;;;;;;2.3;1.1;;;;;;;19.32;93.59277;936.3995;;;;
2023/09/18 12:35:29;;;;;;;2.5;0.7;;;;;;;19.4;91.2207;936.3858;;;;
2023/09/18 12:37:51;;;;;;;1.9;0.5;;;;;;;19.34;92.71289;936.4255;;;;
2023/09/18 12:40:17;;;;;;;1;0.6;;;;;;;19.13;94.77539;936.4874;;;;
2023/09/18 12:42:42;;;;;;;1.5;0.5;;;;;;;19.39;92.69727;936.442;;;;
2023/09/18 12:45:11;;;;;;;0.6;0.4;;;;;;;19.4;91.10449;936.4375;;;;
2023/09/18 12:47:39;;;;;;;1.7;0.8;;;;;;;19.51;91.27832;936.4355;;;;
2023/09/18 12:50:10;;;;;;;2.2;0.5;;;;;;;19.58;90.94141;936.4744;;;;
2023/09/18 12:52:33;;;;;;;1;0.4;;;;;;;19.72;89.50391;936.3615;;;;
2023/09/18 12:55:01;;;;;;;2.6;0.6;;;;;;;19.82;89.17285;936.4849;;;;
2023/09/18 12:57:26;;;;;;;0.4;0.4;;;;;;;19.52;91.19922;936.4936;;;;
2023/09/18 12:59:54;;;;;;;0.4;0.4;;;;;;;19.57;90.52246;936.3697;;;;
2023/09/18 13:02:18;;;;;;;1.3;0.4;;;;;;;19.57;90.10254;936.4771;;;;
2023/09/18 13:04:43;;;;;;;1;0.3;;;;;;;19.68;89.59961;936.4047;;;;
2023/09/18 13:07:09;;;;;;;0.4;0.3;;;;;;;19.78;89.1416;936.4155;;;;
2023/09/18 13:09:35;;;;;;;1.2;0.5;;;;;;;19.79;88.32715;936.4637;;;;
2023/09/18 13:12:01;;;;;;;0.9;0.4;;;;;;;19.64;90.7334;936.553;;;;
2023/09/18 13:14:26;;;;;;;0.6;0.5;;;;;;;19.67;89.34375;936.5084;;;;
2023/09/18 13:16:53;;;;;;;0.3;0.3;;;;;;;19.08;88.48926;936.3392;;;;
2023/09/18 13:19:18;;;;;;;0.4;0.3;;;;;;;19.09;91.78613;936.3599;;;;
2023/09/18 13:21:43;;;;;;;1.3;0.5;;;;;;;19.09;94.53418;936.4052;;;;
2023/09/18 13:24:08;;;;;;;1.2;0.5;;;;;;;18.99;91.64746;936.3794;;;;
2023/09/18 13:26:33;;;;;;;1.7;0.3;;;;;;;19.08;90.25879;936.3692;;;;
2023/09/18 13:28:58;;;;;;;1;0.4;;;;;;;18.83;88.99902;936.3066;;;;
2023/09/18 13:31:23;;;;;;;1.1;0.5;;;;;;;18.85;90.3623;936.4345;;;;
2023/09/18 13:33:48;;;;;;;0.9;0.5;;;;;;;19.12;89.49805;936.3511;;;;
2023/09/18 13:36:15;;;;;;;0.6;0.3;;;;;;;19.02;90.18652;936.3931;;;;
2023/09/18 13:38:39;;;;;;;0.9;0.4;;;;;;;19.26;90.63184;936.4503;;;;
2023/09/18 13:41:06;;;;;;;1.1;0.5;;;;;;;19.41;90.95703;936.4469;;;;
2023/09/18 13:43:34;;;;;;;0.7;0.4;;;;;;;19.56;89.63281;936.3596;;;;
2023/09/18 13:45:56;;;;;;;1.6;0.7;;;;;;;19.49;91.64551;936.4306;;;;
2023/09/18 13:48:22;;;;;;;0.7;0.6;;;;;;;19.37;93.04492;936.4239;;;;
2023/09/18 13:50:47;;;;;;;0.9;0.4;;;;;;;19.39;93.6543;936.3506;;;;
2023/09/18 13:53:12;;;;;;;2.4;0.5;;;;;;;19.48;94.13965;936.291;;;;
2023/09/18 13:55:37;;;;;;;0.5;0.5;;;;;;;19.25;95.39453;936.3044;;;;
2023/09/18 13:58:04;;;;;;;1.3;0.7;;;;;;;19.29;95.26465;936.1958;;;;
2023/09/18 14:00:30;;;;;;;0.8;0.5;;;;;;;19.29;95.05469;936.0757;;;;
2023/09/18 14:02:56;;;;;;;1;0.7;;;;;;;19.23;95.24902;936.0305;;;;
2023/09/18 14:05:22;;;;;;;2.1;0.7;;;;;;;19.17;96.9375;936.0406;;;;
2023/09/18 14:07:47;;;;;;;1.5;0.6;;;;;;;19.41;96.00977;935.9472;;;;
2023/09/18 14:10:12;;;;;;;1.8;0.9;;;;;;;19.44;94.07422;935.9836;;;;
2023/09/18 14:12:38;;;;;;;2;0.8;;;;;;;19.27;96.00586;935.9631;;;;
2023/09/18 14:15:05;;;;;;;2.3;0.7;;;;;;;19.23;97.51172;935.8939;;;;
2023/09/18 14:17:31;;;;;;;2.3;1.7;;;;;;;19.22;94.72461;935.8531;;;;
2023/09/18 14:19:56;;;;;;;1.3;1;;;;;;;19.27;94.27051;935.8411;;;;
2023/09/18 14:22:23;;;;;;;1.9;0.6;;;;;;;19.19;93.87988;935.8803;;;;
2023/09/18 14:24:48;;;;;;;1.7;0.8;;;;;;;19.15;95.80371;935.9032;;;;
2023/09/18 14:27:15;;;;;;;2.8;0.8;;;;;;;19.07;93.89941;935.8498;;;;
2023/09/18 14:29:40;;;;;;;0.4;0.4;;;;;;;18.84;92.83887;935.7547;;;;
2023/09/18 14:32:06;;;;;;;2.5;0.4;;;;;;;18.65;93.16016;935.777;;;;
2023/09/18 14:34:30;;;;;;;1.4;0.6;;;;;;;18.77;94.62793;935.8198;;;;
2023/09/18 14:36:55;;;;;;;1;0.8;;;;;;;18.76;95.96387;935.8073;;;;
2023/09/18 14:39:20;;;;;;;1.5;0.6;;;;;;;18.65;96.81445;935.7665;;;;
2023/09/18 14:41:47;;;;;;;1.6;0.9;;;;;;;18.6;96.88184;935.848;;;;
2023/09/18 14:44:11;;;;;;;1.1;0.5;;;;;;;18.53;96.46094;935.8642;;;;
2023/09/18 14:46:38;;;;;;;1.7;0.7;;;;;;;18.59;96.77539;935.8596;;;;
2023/09/18 14:49:03;;;;;;;1.5;0.6;;;;;;;18.61;96.23242;935.9372;;;;
2023/09/18 14:51:30;;;;;;;2.3;0.6;;;;;;;18.36;96.74902;935.8615;;;;
2023/09/18 14:53:55;;;;;;;2.1;0.6;;;;;;;18.24;96.01465;935.8387;;;;
2023/09/18 14:56:21;;;;;;;0.4;0.4;;;;;;;18.3;96.14258;935.7961;;;;
2023/09/18 14:58:46;;;;;;;2.2;1;;;;;;;18.26;97.04102;935.9236;;;;
2023/09/18 15:01:11;;;;;;;1.3;0.6;;;;;;;18.14;97.04785;935.9956;;;;
2023/09/18 15:03:36;;;;;;;1.1;0.6;;;;;;;18.02;96.56934;935.9363;;;;
2023/09/18 15:06:02;;;;;;;0.7;0.7;;;;;;;17.85;96.76367;935.9182;;;;
2023/09/18 15:08:27;;;;;;;1.3;0.8;;;;;;;17.93;96.60742;935.884;;;;
2023/09/18 15:10:53;;;;;;;1.2;1;;;;;;;18;95.54297;935.8147;;;;
2023/09/18 15:13:19;;;;;;;0.8;0.6;;;;;;;17.88;97.20117;935.8617;;;;
2023/09/18 15:15:44;;;;;;;1.2;0.7;;;;;;;17.85;97.38086;935.8656;;;;
2023/09/18 15:18:09;;;;;;;1.1;0.6;;;;;;;17.88;97.39844;935.8375;;;;
2023/09/18 15:20:34;;;;;;;3;0.8;;;;;;;17.9;97.0293;935.747;;;;
2023/09/18 15:23:03;;;;;;;0.9;0.6;;;;;;;17.79;98.10938;935.7226;;;;
2023/09/18 15:25:28;;;;;;;1.3;0.7;;;;;;;17.97;98.60352;935.685;;;;
2023/09/18 15:27:56;;;;;;;2;0.8;;;;;;;17.89;98.62012;935.7296;;;;
2023/09/18 15:30:20;;;;;;;3.7;1.2;;;;;;;17.98;99.34668;935.7717;;;;